메인 페이지
METAR-TAF:

METAR-TAF

공항 :

하이데라바드, 인도

위도: 17-27N, 경도: 078-28E, 고도: 530m

현재 날씨관측

예보는 38분 전, 03:30시(UTC)에 발표되었습니다.
5kt
온도 30°C
습도 66%
기압 1009 hPa
시정: 6000m

METAR: VOHY 220330Z 17005KT 6000 NSC 30/23 Q1009 NOSIG

시각: 09:38 (04:08 UTC)

예보

예보는 2 시간 8분 전, 02:00시(UTC)에 발표되었습니다.
예보 대상 시간: 22일 03시부터 22일 12시까지 (UTC)
6kt
시정: 6000m
고도 1500ft 상공 구름 보통
고도 2500ft 상공 구름 보통
일시적
22일 09시부터 22일 12시까지 (UTC)
동남동8kt
고도 1500ft 상공 구름 보통
고도 2500ft 상공 구름 보통
고도 3000ft 상공 구름 조금, 적란운.

TAF: VOHY 220200Z 2203/2212 10006KT 6000 SCT015 SCT025 TEMPO 2209/2212 12008KT SCT015 SCT025 FEW030CB

4,000개 이상의 공항 관측 자료 및 예보 (METAR 및 TAF 보고).

지도상에서 검색 가능한 기상관측소가 노란 점과 빨간 점으로 표시되어 있습니다.

기상관측소 명을 보려면 표시 위로 마우스를 이동하세요.

날씨 관측과 예보를 보려면 클릭하세요.

지도 변경 : 확대하려면 엑스 표시가 있는 녹색 버튼, 축소하려면 빼기 표시가 있는 녹색 버튼, 다음 페이지의 지도를 보려면 녹색 화살표를 클릭하세요.


METAR-TAF: